Gales Creek, Oregon
Current Conditions -  °F | °C
As of 4:25 AM on Monday 24 Nov 2014 (Local Time) from KHIO Reporting Station
Haze Haze  
Wind Chill: 62°   Ceiling: 500
Heat Index: 62°   Visibility: 0.75mi
Dew Point: 47°   Wind: 0mph
Humidity: 58%   Direction: NA
Pressure: 30.36"   Gusts: NA
Location:  45.59°N, 123.21°W
Report Text: KHIO 241225Z AUTO 00000KT 3/4SM R13/3000V5500FT HZ BKN005 OVC010 17/08 A3036 RMK AO2 T01670083
Loading
Personal Weather Stations






























Interactive Weather Map New forecast layout! Learn more

10-Day Weather Forecast

Advertisements
Track Severe Weather on mobile